sensor_id;sensor_type;location;lat;lon;timestamp;P1;durP1;ratioP1;P2;durP2;ratioP2
63943;SDS011;50121;51.218;7.664;2024-03-25T00:01:07;17.98;;;7.68;;
63943;SDS011;50121;51.218;7.664;2024-03-25T00:03:34;22.90;;;7.93;;
63943;SDS011;50121;51.218;7.664;2024-03-25T00:06:01;18.90;;;7.35;;
63943;SDS011;50121;51.218;7.664;2024-03-25T00:08:27;20.58;;;7.88;;
63943;SDS011;50121;51.218;7.664;2024-03-25T00:10:54;20.52;;;8.13;;
63943;SDS011;50121;51.218;7.664;2024-03-25T00:13:22;20.00;;;8.27;;
63943;SDS011;50121;51.218;7.664;2024-03-25T00:15:49;18.40;;;8.07;;
63943;SDS011;50121;51.218;7.664;2024-03-25T00:18:16;15.95;;;7.28;;
63943;SDS011;50121;51.218;7.664;2024-03-25T00:20:43;13.73;;;7.40;;
63943;SDS011;50121;51.218;7.664;2024-03-25T00:23:10;20.05;;;7.72;;
63943;SDS011;50121;51.218;7.664;2024-03-25T00:25:37;16.83;;;7.80;;
63943;SDS011;50121;51.218;7.664;2024-03-25T00:28:04;16.45;;;7.93;;
63943;SDS011;50121;51.218;7.664;2024-03-25T00:30:31;14.93;;;7.78;;
63943;SDS011;50121;51.218;7.664;2024-03-25T00:32:58;18.55;;;7.82;;
63943;SDS011;50121;51.218;7.664;2024-03-25T00:35:25;12.50;;;6.85;;
63943;SDS011;50121;51.218;7.664;2024-03-25T00:37:52;16.35;;;7.90;;
63943;SDS011;50121;51.218;7.664;2024-03-25T00:40:19;19.75;;;7.55;;
63943;SDS011;50121;51.218;7.664;2024-03-25T00:42:46;17.92;;;7.85;;
63943;SDS011;50121;51.218;7.664;2024-03-25T00:45:13;15.55;;;7.30;;
63943;SDS011;50121;51.218;7.664;2024-03-25T00:47:40;12.65;;;6.95;;
63943;SDS011;50121;51.218;7.664;2024-03-25T00:50:08;12.80;;;6.57;;
63943;SDS011;50121;51.218;7.664;2024-03-25T00:52:35;12.20;;;7.15;;
63943;SDS011;50121;51.218;7.664;2024-03-25T00:55:02;12.77;;;6.93;;
63943;SDS011;50121;51.218;7.664;2024-03-25T00:57:29;16.13;;;6.60;;
63943;SDS011;50121;51.218;7.664;2024-03-25T00:59:56;14.07;;;7.18;;
63943;SDS011;50121;51.218;7.664;2024-03-25T01:02:22;16.20;;;7.85;;
63943;SDS011;50121;51.218;7.664;2024-03-25T01:04:49;16.40;;;7.43;;
63943;SDS011;50121;51.218;7.664;2024-03-25T01:07:16;17.38;;;7.70;;
63943;SDS011;50121;51.218;7.664;2024-03-25T01:09:43;18.10;;;7.32;;
63943;SDS011;50121;51.218;7.664;2024-03-25T01:12:10;18.80;;;7.47;;
63943;SDS011;50121;51.218;7.664;2024-03-25T01:14:36;23.58;;;9.07;;
63943;SDS011;50121;51.218;7.664;2024-03-25T01:17:03;20.52;;;8.00;;
63943;SDS011;50121;51.218;7.664;2024-03-25T01:19:30;10.82;;;7.20;;
63943;SDS011;50121;51.218;7.664;2024-03-25T01:21:57;18.63;;;7.72;;
63943;SDS011;50121;51.218;7.664;2024-03-25T01:24:24;22.70;;;7.40;;
63943;SDS011;50121;51.218;7.664;2024-03-25T01:26:51;15.65;;;7.45;;
63943;SDS011;50121;51.218;7.664;2024-03-25T01:29:18;16.27;;;7.43;;
63943;SDS011;50121;51.218;7.664;2024-03-25T01:31:45;11.35;;;6.43;;
63943;SDS011;50121;51.218;7.664;2024-03-25T01:34:11;10.20;;;6.38;;
63943;SDS011;50121;51.218;7.664;2024-03-25T01:36:38;17.58;;;7.93;;
63943;SDS011;50121;51.218;7.664;2024-03-25T01:39:06;19.42;;;7.70;;
63943;SDS011;50121;51.218;7.664;2024-03-25T01:41:33;18.90;;;7.68;;
63943;SDS011;50121;51.218;7.664;2024-03-25T01:44:00;19.55;;;7.20;;
63943;SDS011;50121;51.218;7.664;2024-03-25T01:46:27;13.68;;;6.82;;
63943;SDS011;50121;51.218;7.664;2024-03-25T01:48:55;20.80;;;8.00;;
63943;SDS011;50121;51.218;7.664;2024-03-25T01:51:24;23.02;;;7.38;;
63943;SDS011;50121;51.218;7.664;2024-03-25T01:53:57;17.58;;;8.40;;
63943;SDS011;50121;51.218;7.664;2024-03-25T01:56:25;21.17;;;8.13;;
63943;SDS011;50121;51.218;7.664;2024-03-25T01:58:53;22.85;;;8.18;;
63943;SDS011;50121;51.218;7.664;2024-03-25T02:01:20;16.65;;;7.15;;
63943;SDS011;50121;51.218;7.664;2024-03-25T02:03:47;15.63;;;6.72;;
63943;SDS011;50121;51.218;7.664;2024-03-25T02:06:16;18.85;;;7.40;;
63943;SDS011;50121;51.218;7.664;2024-03-25T02:08:43;19.13;;;7.13;;
63943;SDS011;50121;51.218;7.664;2024-03-25T02:11:10;12.48;;;7.20;;
63943;SDS011;50121;51.218;7.664;2024-03-25T02:13:39;22.48;;;7.28;;
63943;SDS011;50121;51.218;7.664;2024-03-25T02:16:06;21.60;;;7.47;;
63943;SDS011;50121;51.218;7.664;2024-03-25T02:18:32;17.80;;;7.00;;
63943;SDS011;50121;51.218;7.664;2024-03-25T02:20:59;19.10;;;6.68;;
63943;SDS011;50121;51.218;7.664;2024-03-25T02:23:26;12.38;;;5.90;;
63943;SDS011;50121;51.218;7.664;2024-03-25T02:25:53;18.08;;;6.78;;
63943;SDS011;50121;51.218;7.664;2024-03-25T02:28:20;21.70;;;7.13;;
63943;SDS011;50121;51.218;7.664;2024-03-25T02:30:47;16.38;;;6.72;;
63943;SDS011;50121;51.218;7.664;2024-03-25T02:33:15;17.73;;;6.90;;
63943;SDS011;50121;51.218;7.664;2024-03-25T02:35:42;20.10;;;6.72;;
63943;SDS011;50121;51.218;7.664;2024-03-25T02:38:10;21.52;;;7.20;;
63943;SDS011;50121;51.218;7.664;2024-03-25T02:40:37;16.55;;;6.78;;
63943;SDS011;50121;51.218;7.664;2024-03-25T02:43:05;21.20;;;7.10;;
63943;SDS011;50121;51.218;7.664;2024-03-25T02:45:33;19.95;;;7.18;;
63943;SDS011;50121;51.218;7.664;2024-03-25T02:48:00;20.27;;;6.60;;
63943;SDS011;50121;51.218;7.664;2024-03-25T02:50:27;15.88;;;6.70;;
63943;SDS011;50121;51.218;7.664;2024-03-25T02:52:53;14.63;;;6.75;;
63943;SDS011;50121;51.218;7.664;2024-03-25T02:55:20;18.00;;;6.90;;
63943;SDS011;50121;51.218;7.664;2024-03-25T02:57:47;18.50;;;7.07;;
63943;SDS011;50121;51.218;7.664;2024-03-25T03:00:14;11.98;;;6.13;;
63943;SDS011;50121;51.218;7.664;2024-03-25T03:02:41;21.63;;;7.07;;
63943;SDS011;50121;51.218;7.664;2024-03-25T03:05:08;21.98;;;7.20;;
63943;SDS011;50121;51.218;7.664;2024-03-25T03:07:34;21.95;;;6.90;;
63943;SDS011;50121;51.218;7.664;2024-03-25T03:10:01;19.67;;;7.07;;
63943;SDS011;50121;51.218;7.664;2024-03-25T03:12:28;17.27;;;6.95;;
63943;SDS011;50121;51.218;7.664;2024-03-25T03:14:54;18.67;;;6.60;;
63943;SDS011;50121;51.218;7.664;2024-03-25T03:17:21;17.33;;;7.05;;
63943;SDS011;50121;51.218;7.664;2024-03-25T03:19:48;14.00;;;7.15;;
63943;SDS011;50121;51.218;7.664;2024-03-25T03:22:14;20.17;;;6.40;;
63943;SDS011;50121;51.218;7.664;2024-03-25T03:24:41;18.05;;;7.35;;
63943;SDS011;50121;51.218;7.664;2024-03-25T03:27:08;21.80;;;7.40;;
63943;SDS011;50121;51.218;7.664;2024-03-25T03:29:35;21.30;;;7.90;;
63943;SDS011;50121;51.218;7.664;2024-03-25T03:32:02;19.42;;;6.85;;
63943;SDS011;50121;51.218;7.664;2024-03-25T03:34:29;17.50;;;7.50;;
63943;SDS011;50121;51.218;7.664;2024-03-25T03:36:55;16.17;;;6.72;;
63943;SDS011;50121;51.218;7.664;2024-03-25T03:39:22;16.73;;;7.07;;
63943;SDS011;50121;51.218;7.664;2024-03-25T03:41:49;22.80;;;7.78;;
63943;SDS011;50121;51.218;7.664;2024-03-25T03:44:16;19.02;;;7.68;;
63943;SDS011;50121;51.218;7.664;2024-03-25T03:46:42;14.63;;;6.40;;
63943;SDS011;50121;51.218;7.664;2024-03-25T03:49:09;15.55;;;8.07;;
63943;SDS011;50121;51.218;7.664;2024-03-25T03:51:36;14.80;;;6.95;;
63943;SDS011;50121;51.218;7.664;2024-03-25T03:54:03;19.42;;;6.82;;
63943;SDS011;50121;51.218;7.664;2024-03-25T03:56:30;17.40;;;7.10;;
63943;SDS011;50121;51.218;7.664;2024-03-25T03:58:56;17.95;;;7.05;;
63943;SDS011;50121;51.218;7.664;2024-03-25T04:01:23;19.25;;;7.85;;
63943;SDS011;50121;51.218;7.664;2024-03-25T04:03:50;17.80;;;7.13;;
63943;SDS011;50121;51.218;7.664;2024-03-25T04:06:17;15.63;;;6.95;;
63943;SDS011;50121;51.218;7.664;2024-03-25T04:08:44;18.38;;;7.55;;
63943;SDS011;50121;51.218;7.664;2024-03-25T04:11:10;17.00;;;7.30;;
63943;SDS011;50121;51.218;7.664;2024-03-25T04:13:37;24.10;;;7.25;;
63943;SDS011;50121;51.218;7.664;2024-03-25T04:16:04;15.57;;;7.00;;
63943;SDS011;50121;51.218;7.664;2024-03-25T04:18:32;16.75;;;7.57;;
63943;SDS011;50121;51.218;7.664;2024-03-25T04:20:59;17.35;;;7.47;;
63943;SDS011;50121;51.218;7.664;2024-03-25T04:23:26;22.77;;;7.38;;
63943;SDS011;50121;51.218;7.664;2024-03-25T04:25:52;17.90;;;7.82;;
63943;SDS011;50121;51.218;7.664;2024-03-25T04:28:19;19.17;;;7.43;;
63943;SDS011;50121;51.218;7.664;2024-03-25T04:30:53;18.48;;;7.50;;
63943;SDS011;50121;51.218;7.664;2024-03-25T04:35:47;15.85;;;7.07;;
63943;SDS011;50121;51.218;7.664;2024-03-25T04:38:17;15.55;;;7.43;;
63943;SDS011;50121;51.218;7.664;2024-03-25T04:40:43;17.38;;;7.18;;
63943;SDS011;50121;51.218;7.664;2024-03-25T04:43:10;22.23;;;7.05;;
63943;SDS011;50121;51.218;7.664;2024-03-25T04:45:37;17.92;;;7.00;;
63943;SDS011;50121;51.218;7.664;2024-03-25T04:48:04;14.13;;;7.00;;
63943;SDS011;50121;51.218;7.664;2024-03-25T04:50:31;25.70;;;7.75;;
63943;SDS011;50121;51.218;7.664;2024-03-25T04:52:57;14.82;;;6.90;;
63943;SDS011;50121;51.218;7.664;2024-03-25T04:55:24;20.55;;;7.70;;
63943;SDS011;50121;51.218;7.664;2024-03-25T04:57:51;20.98;;;7.30;;
63943;SDS011;50121;51.218;7.664;2024-03-25T05:00:18;18.58;;;7.55;;
63943;SDS011;50121;51.218;7.664;2024-03-25T05:02:45;16.85;;;7.10;;
63943;SDS011;50121;51.218;7.664;2024-03-25T05:05:12;22.25;;;6.93;;
63943;SDS011;50121;51.218;7.664;2024-03-25T05:07:38;19.05;;;7.57;;
63943;SDS011;50121;51.218;7.664;2024-03-25T05:10:05;18.90;;;7.57;;
63943;SDS011;50121;51.218;7.664;2024-03-25T05:12:32;18.70;;;7.80;;
63943;SDS011;50121;51.218;7.664;2024-03-25T05:14:59;23.05;;;8.10;;
63943;SDS011;50121;51.218;7.664;2024-03-25T05:17:25;17.20;;;7.82;;
63943;SDS011;50121;51.218;7.664;2024-03-25T05:19:52;16.70;;;7.45;;
63943;SDS011;50121;51.218;7.664;2024-03-25T05:22:19;21.50;;;7.55;;
63943;SDS011;50121;51.218;7.664;2024-03-25T05:24:45;18.80;;;7.63;;
63943;SDS011;50121;51.218;7.664;2024-03-25T05:27:14;22.25;;;7.85;;
63943;SDS011;50121;51.218;7.664;2024-03-25T05:29:41;18.90;;;7.97;;
63943;SDS011;50121;51.218;7.664;2024-03-25T05:32:08;18.67;;;7.45;;
63943;SDS011;50121;51.218;7.664;2024-03-25T05:34:34;21.63;;;7.45;;
63943;SDS011;50121;51.218;7.664;2024-03-25T05:37:02;26.52;;;8.05;;
63943;SDS011;50121;51.218;7.664;2024-03-25T05:39:29;19.60;;;7.90;;
63943;SDS011;50121;51.218;7.664;2024-03-25T05:41:55;20.48;;;7.78;;
63943;SDS011;50121;51.218;7.664;2024-03-25T05:44:22;17.52;;;8.25;;
63943;SDS011;50121;51.218;7.664;2024-03-25T05:46:50;15.30;;;7.45;;
63943;SDS011;50121;51.218;7.664;2024-03-25T05:49:17;18.80;;;7.30;;
63943;SDS011;50121;51.218;7.664;2024-03-25T05:51:43;26.10;;;7.78;;
63943;SDS011;50121;51.218;7.664;2024-03-25T05:54:11;23.17;;;8.02;;
63943;SDS011;50121;51.218;7.664;2024-03-25T05:56:37;25.25;;;8.65;;
63943;SDS011;50121;51.218;7.664;2024-03-25T05:59:04;24.15;;;7.97;;
63943;SDS011;50121;51.218;7.664;2024-03-25T06:01:31;21.58;;;8.63;;
63943;SDS011;50121;51.218;7.664;2024-03-25T06:04:00;18.60;;;8.18;;
63943;SDS011;50121;51.218;7.664;2024-03-25T06:06:28;18.70;;;7.85;;
63943;SDS011;50121;51.218;7.664;2024-03-25T06:08:55;21.13;;;8.07;;
63943;SDS011;50121;51.218;7.664;2024-03-25T06:11:21;18.23;;;8.13;;
63943;SDS011;50121;51.218;7.664;2024-03-25T06:13:49;21.17;;;7.80;;
63943;SDS011;50121;51.218;7.664;2024-03-25T06:16:18;21.70;;;7.40;;
63943;SDS011;50121;51.218;7.664;2024-03-25T06:18:45;24.60;;;8.07;;
63943;SDS011;50121;51.218;7.664;2024-03-25T06:21:12;21.65;;;8.10;;
63943;SDS011;50121;51.218;7.664;2024-03-25T06:23:40;18.38;;;6.90;;
63943;SDS011;50121;51.218;7.664;2024-03-25T06:26:07;23.35;;;7.75;;
63943;SDS011;50121;51.218;7.664;2024-03-25T06:28:34;23.42;;;7.40;;
63943;SDS011;50121;51.218;7.664;2024-03-25T06:31:01;19.65;;;7.22;;
63943;SDS011;50121;51.218;7.664;2024-03-25T06:33:46;24.85;;;6.93;;
63943;SDS011;50121;51.218;7.664;2024-03-25T06:36:32;19.08;;;7.80;;
63943;SDS011;50121;51.218;7.664;2024-03-25T06:39:01;18.17;;;7.25;;
63943;SDS011;50121;51.218;7.664;2024-03-25T06:41:29;21.20;;;7.10;;
63943;SDS011;50121;51.218;7.664;2024-03-25T06:43:56;18.00;;;7.63;;
63943;SDS011;50121;51.218;7.664;2024-03-25T06:46:28;23.10;;;8.52;;
63943;SDS011;50121;51.218;7.664;2024-03-25T06:48:54;25.85;;;7.38;;
63943;SDS011;50121;51.218;7.664;2024-03-25T06:51:22;15.98;;;6.47;;
63943;SDS011;50121;51.218;7.664;2024-03-25T06:53:49;19.05;;;7.07;;
63943;SDS011;50121;51.218;7.664;2024-03-25T06:56:17;18.27;;;7.32;;
63943;SDS011;50121;51.218;7.664;2024-03-25T06:58:44;20.70;;;6.10;;
63943;SDS011;50121;51.218;7.664;2024-03-25T07:01:11;15.07;;;7.25;;
63943;SDS011;50121;51.218;7.664;2024-03-25T07:03:38;21.35;;;7.05;;
63943;SDS011;50121;51.218;7.664;2024-03-25T07:06:07;15.40;;;7.88;;
63943;SDS011;50121;51.218;7.664;2024-03-25T07:08:34;19.15;;;7.05;;
63943;SDS011;50121;51.218;7.664;2024-03-25T07:11:01;23.55;;;7.25;;
63943;SDS011;50121;51.218;7.664;2024-03-25T07:13:32;18.55;;;7.20;;
63943;SDS011;50121;51.218;7.664;2024-03-25T07:16:02;18.83;;;6.85;;
63943;SDS011;50121;51.218;7.664;2024-03-25T07:18:29;19.90;;;7.43;;
63943;SDS011;50121;51.218;7.664;2024-03-25T07:20:56;25.45;;;6.85;;
63943;SDS011;50121;51.218;7.664;2024-03-25T07:23:23;27.48;;;10.65;;
63943;SDS011;50121;51.218;7.664;2024-03-25T07:25:49;22.30;;;7.18;;
63943;SDS011;50121;51.218;7.664;2024-03-25T07:28:17;19.98;;;8.90;;
63943;SDS011;50121;51.218;7.664;2024-03-25T07:30:43;20.30;;;6.55;;
63943;SDS011;50121;51.218;7.664;2024-03-25T07:33:10;16.58;;;6.82;;
63943;SDS011;50121;51.218;7.664;2024-03-25T07:35:37;19.85;;;6.95;;
63943;SDS011;50121;51.218;7.664;2024-03-25T07:38:04;12.70;;;6.32;;
63943;SDS011;50121;51.218;7.664;2024-03-25T07:40:31;12.50;;;6.60;;
63943;SDS011;50121;51.218;7.664;2024-03-25T07:42:58;21.33;;;6.72;;
63943;SDS011;50121;51.218;7.664;2024-03-25T07:45:25;15.77;;;6.55;;
63943;SDS011;50121;51.218;7.664;2024-03-25T07:47:53;18.30;;;7.15;;
63943;SDS011;50121;51.218;7.664;2024-03-25T07:50:21;26.45;;;11.77;;
63943;SDS011;50121;51.218;7.664;2024-03-25T07:52:48;16.55;;;7.45;;
63943;SDS011;50121;51.218;7.664;2024-03-25T07:55:15;20.27;;;7.63;;
63943;SDS011;50121;51.218;7.664;2024-03-25T07:57:42;17.92;;;6.97;;
63943;SDS011;50121;51.218;7.664;2024-03-25T08:00:08;16.00;;;6.82;;
63943;SDS011;50121;51.218;7.664;2024-03-25T08:02:39;17.52;;;6.53;;
63943;SDS011;50121;51.218;7.664;2024-03-25T08:05:06;18.33;;;6.35;;
63943;SDS011;50121;51.218;7.664;2024-03-25T08:07:33;22.05;;;7.13;;
63943;SDS011;50121;51.218;7.664;2024-03-25T08:10:00;16.67;;;6.57;;
63943;SDS011;50121;51.218;7.664;2024-03-25T08:12:28;18.15;;;6.90;;
63943;SDS011;50121;51.218;7.664;2024-03-25T08:14:55;21.42;;;6.70;;
63943;SDS011;50121;51.218;7.664;2024-03-25T08:17:21;15.05;;;6.32;;
63943;SDS011;50121;51.218;7.664;2024-03-25T08:19:48;11.15;;;5.70;;
63943;SDS011;50121;51.218;7.664;2024-03-25T08:22:15;9.48;;;5.38;;
63943;SDS011;50121;51.218;7.664;2024-03-25T08:24:41;12.35;;;5.63;;
63943;SDS011;50121;51.218;7.664;2024-03-25T08:27:08;12.38;;;5.80;;
63943;SDS011;50121;51.218;7.664;2024-03-25T08:29:36;13.45;;;6.63;;
63943;SDS011;50121;51.218;7.664;2024-03-25T08:32:03;12.45;;;6.00;;
63943;SDS011;50121;51.218;7.664;2024-03-25T08:34:30;9.80;;;6.28;;
63943;SDS011;50121;51.218;7.664;2024-03-25T08:36:57;16.45;;;6.43;;
63943;SDS011;50121;51.218;7.664;2024-03-25T08:39:24;16.73;;;6.10;;
63943;SDS011;50121;51.218;7.664;2024-03-25T08:41:51;13.18;;;6.30;;
63943;SDS011;50121;51.218;7.664;2024-03-25T08:44:19;14.35;;;6.30;;
63943;SDS011;50121;51.218;7.664;2024-03-25T08:46:46;21.20;;;6.35;;
63943;SDS011;50121;51.218;7.664;2024-03-25T08:49:13;11.25;;;6.00;;
63943;SDS011;50121;51.218;7.664;2024-03-25T08:51:39;13.88;;;5.55;;
63943;SDS011;50121;51.218;7.664;2024-03-25T08:54:06;17.10;;;7.07;;
63943;SDS011;50121;51.218;7.664;2024-03-25T08:56:33;12.75;;;6.50;;
63943;SDS011;50121;51.218;7.664;2024-03-25T08:59:00;11.18;;;6.65;;
63943;SDS011;50121;51.218;7.664;2024-03-25T09:01:27;9.95;;;7.35;;
63943;SDS011;50121;51.218;7.664;2024-03-25T09:03:54;18.25;;;7.65;;
63943;SDS011;50121;51.218;7.664;2024-03-25T09:06:21;18.30;;;7.47;;
63943;SDS011;50121;51.218;7.664;2024-03-25T09:08:48;15.75;;;7.05;;
63943;SDS011;50121;51.218;7.664;2024-03-25T09:11:34;14.30;;;7.13;;
63943;SDS011;50121;51.218;7.664;2024-03-25T09:14:00;12.75;;;7.05;;
63943;SDS011;50121;51.218;7.664;2024-03-25T09:16:30;11.52;;;6.45;;
63943;SDS011;50121;51.218;7.664;2024-03-25T09:18:56;8.75;;;6.65;;
63943;SDS011;50121;51.218;7.664;2024-03-25T09:21:24;11.00;;;7.07;;
63943;SDS011;50121;51.218;7.664;2024-03-25T09:23:52;9.98;;;7.28;;
63943;SDS011;50121;51.218;7.664;2024-03-25T09:26:21;16.52;;;7.40;;
63943;SDS011;50121;51.218;7.664;2024-03-25T09:28:48;12.00;;;7.22;;
63943;SDS011;50121;51.218;7.664;2024-03-25T09:31:15;11.25;;;7.47;;
63943;SDS011;50121;51.218;7.664;2024-03-25T09:33:41;14.93;;;7.40;;
63943;SDS011;50121;51.218;7.664;2024-03-25T09:36:09;9.27;;;7.57;;
63943;SDS011;50121;51.218;7.664;2024-03-25T09:38:37;17.70;;;8.13;;
63943;SDS011;50121;51.218;7.664;2024-03-25T09:41:03;9.88;;;7.20;;
63943;SDS011;50121;51.218;7.664;2024-03-25T09:43:37;11.60;;;7.47;;
63943;SDS011;50121;51.218;7.664;2024-03-25T09:46:09;9.50;;;6.93;;
63943;SDS011;50121;51.218;7.664;2024-03-25T09:48:36;10.38;;;7.30;;
63943;SDS011;50121;51.218;7.664;2024-03-25T09:51:06;10.77;;;6.80;;
63943;SDS011;50121;51.218;7.664;2024-03-25T09:53:33;10.90;;;7.00;;
63943;SDS011;50121;51.218;7.664;2024-03-25T09:56:01;8.77;;;6.80;;
63943;SDS011;50121;51.218;7.664;2024-03-25T09:58:28;12.50;;;6.40;;
63943;SDS011;50121;51.218;7.664;2024-03-25T10:00:55;11.25;;;6.18;;
63943;SDS011;50121;51.218;7.664;2024-03-25T10:03:23;9.98;;;6.80;;
63943;SDS011;50121;51.218;7.664;2024-03-25T10:05:50;8.20;;;6.47;;
63943;SDS011;50121;51.218;7.664;2024-03-25T10:08:21;8.18;;;6.15;;
63943;SDS011;50121;51.218;7.664;2024-03-25T10:10:47;12.02;;;6.82;;
63943;SDS011;50121;51.218;7.664;2024-03-25T10:13:15;10.60;;;6.88;;
63943;SDS011;50121;51.218;7.664;2024-03-25T10:15:43;13.85;;;6.93;;
63943;SDS011;50121;51.218;7.664;2024-03-25T10:18:12;12.45;;;7.35;;
63943;SDS011;50121;51.218;7.664;2024-03-25T10:20:47;14.57;;;7.22;;
63943;SDS011;50121;51.218;7.664;2024-03-25T10:23:14;10.82;;;7.18;;
63943;SDS011;50121;51.218;7.664;2024-03-25T10:25:41;8.23;;;6.75;;
63943;SDS011;50121;51.218;7.664;2024-03-25T10:28:08;10.73;;;7.53;;
63943;SDS011;50121;51.218;7.664;2024-03-25T10:30:37;10.75;;;6.85;;
63943;SDS011;50121;51.218;7.664;2024-03-25T10:33:04;8.25;;;6.78;;
63943;SDS011;50121;51.218;7.664;2024-03-25T10:35:33;8.10;;;5.93;;
63943;SDS011;50121;51.218;7.664;2024-03-25T10:38:01;10.45;;;6.28;;
63943;SDS011;50121;51.218;7.664;2024-03-25T10:40:29;9.35;;;5.95;;
63943;SDS011;50121;51.218;7.664;2024-03-25T10:43:00;11.45;;;6.57;;
63943;SDS011;50121;51.218;7.664;2024-03-25T10:45:30;8.82;;;5.78;;
63943;SDS011;50121;51.218;7.664;2024-03-25T10:47:57;6.35;;;4.95;;
63943;SDS011;50121;51.218;7.664;2024-03-25T10:50:26;8.55;;;5.68;;
63943;SDS011;50121;51.218;7.664;2024-03-25T10:52:54;10.00;;;5.75;;
63943;SDS011;50121;51.218;7.664;2024-03-25T10:55:24;7.22;;;5.80;;
63943;SDS011;50121;51.218;7.664;2024-03-25T10:57:54;8.68;;;5.38;;
63943;SDS011;50121;51.218;7.664;2024-03-25T11:00:22;10.52;;;5.30;;
63943;SDS011;50121;51.218;7.664;2024-03-25T11:02:52;5.55;;;5.05;;
63943;SDS011;50121;51.218;7.664;2024-03-25T11:05:20;6.63;;;5.15;;
63943;SDS011;50121;51.218;7.664;2024-03-25T11:07:47;7.72;;;5.47;;
63943;SDS011;50121;51.218;7.664;2024-03-25T11:10:14;6.35;;;5.07;;
63943;SDS011;50121;51.218;7.664;2024-03-25T11:12:42;9.70;;;5.93;;
63943;SDS011;50121;51.218;7.664;2024-03-25T11:15:09;7.68;;;5.43;;
63943;SDS011;50121;51.218;7.664;2024-03-25T11:17:36;11.20;;;5.63;;
63943;SDS011;50121;51.218;7.664;2024-03-25T11:20:10;8.02;;;5.40;;
63943;SDS011;50121;51.218;7.664;2024-03-25T11:25:05;6.97;;;5.50;;
63943;SDS011;50121;51.218;7.664;2024-03-25T11:27:37;10.90;;;6.03;;
63943;SDS011;50121;51.218;7.664;2024-03-25T11:30:06;5.78;;;5.25;;
63943;SDS011;50121;51.218;7.664;2024-03-25T11:35:37;7.50;;;5.78;;
63943;SDS011;50121;51.218;7.664;2024-03-25T11:38:07;9.13;;;5.05;;
63943;SDS011;50121;51.218;7.664;2024-03-25T11:40:34;6.35;;;5.65;;
63943;SDS011;50121;51.218;7.664;2024-03-25T11:43:02;9.50;;;5.50;;
63943;SDS011;50121;51.218;7.664;2024-03-25T11:45:29;9.52;;;5.63;;
63943;SDS011;50121;51.218;7.664;2024-03-25T11:47:57;6.65;;;5.50;;
63943;SDS011;50121;51.218;7.664;2024-03-25T11:50:25;10.18;;;6.15;;
63943;SDS011;50121;51.218;7.664;2024-03-25T11:52:52;9.50;;;5.70;;
63943;SDS011;50121;51.218;7.664;2024-03-25T11:55:19;8.02;;;5.97;;
63943;SDS011;50121;51.218;7.664;2024-03-25T11:57:54;6.55;;;5.53;;
63943;SDS011;50121;51.218;7.664;2024-03-25T12:00:21;7.47;;;5.63;;
63943;SDS011;50121;51.218;7.664;2024-03-25T12:02:49;10.73;;;5.63;;
63943;SDS011;50121;51.218;7.664;2024-03-25T12:05:18;10.00;;;5.40;;
63943;SDS011;50121;51.218;7.664;2024-03-25T12:07:45;6.45;;;5.55;;
63943;SDS011;50121;51.218;7.664;2024-03-25T12:10:11;8.18;;;6.03;;
63943;SDS011;50121;51.218;7.664;2024-03-25T12:12:57;8.52;;;6.28;;
63943;SDS011;50121;51.218;7.664;2024-03-25T12:15:25;8.48;;;5.70;;
63943;SDS011;50121;51.218;7.664;2024-03-25T12:17:52;6.80;;;5.72;;
63943;SDS011;50121;51.218;7.664;2024-03-25T12:20:22;8.30;;;5.40;;
63943;SDS011;50121;51.218;7.664;2024-03-25T12:22:55;9.50;;;6.25;;
63943;SDS011;50121;51.218;7.664;2024-03-25T12:25:22;6.85;;;6.00;;
63943;SDS011;50121;51.218;7.664;2024-03-25T12:27:51;11.85;;;6.72;;
63943;SDS011;50121;51.218;7.664;2024-03-25T12:30:19;10.10;;;6.10;;
63943;SDS011;50121;51.218;7.664;2024-03-25T12:32:46;6.75;;;5.88;;
63943;SDS011;50121;51.218;7.664;2024-03-25T12:35:14;7.82;;;5.70;;
63943;SDS011;50121;51.218;7.664;2024-03-25T12:37:45;6.95;;;4.90;;
63943;SDS011;50121;51.218;7.664;2024-03-25T12:40:24;6.88;;;5.93;;
63943;SDS011;50121;51.218;7.664;2024-03-25T12:42:51;6.20;;;5.60;;
63943;SDS011;50121;51.218;7.664;2024-03-25T12:45:19;10.93;;;5.20;;
63943;SDS011;50121;51.218;7.664;2024-03-25T12:47:47;7.18;;;5.72;;
63943;SDS011;50121;51.218;7.664;2024-03-25T12:50:18;8.18;;;5.20;;
63943;SDS011;50121;51.218;7.664;2024-03-25T12:52:45;6.07;;;5.50;;
63943;SDS011;50121;51.218;7.664;2024-03-25T12:55:12;5.78;;;4.90;;
63943;SDS011;50121;51.218;7.664;2024-03-25T12:57:39;6.60;;;5.10;;
63943;SDS011;50121;51.218;7.664;2024-03-25T13:00:08;6.95;;;5.60;;
63943;SDS011;50121;51.218;7.664;2024-03-25T13:02:35;5.45;;;4.95;;
63943;SDS011;50121;51.218;7.664;2024-03-25T13:05:02;7.03;;;5.50;;
63943;SDS011;50121;51.218;7.664;2024-03-25T13:07:30;6.97;;;5.70;;
63943;SDS011;50121;51.218;7.664;2024-03-25T13:09:57;7.35;;;6.40;;
63943;SDS011;50121;51.218;7.664;2024-03-25T13:12:25;8.57;;;6.25;;
63943;SDS011;50121;51.218;7.664;2024-03-25T13:14:52;8.63;;;5.60;;
63943;SDS011;50121;51.218;7.664;2024-03-25T13:17:21;8.15;;;5.40;;
63943;SDS011;50121;51.218;7.664;2024-03-25T13:19:51;7.10;;;5.53;;
63943;SDS011;50121;51.218;7.664;2024-03-25T13:22:18;5.75;;;5.10;;
63943;SDS011;50121;51.218;7.664;2024-03-25T13:24:46;6.78;;;5.07;;
63943;SDS011;50121;51.218;7.664;2024-03-25T13:27:12;7.60;;;5.70;;
63943;SDS011;50121;51.218;7.664;2024-03-25T13:29:39;6.57;;;5.40;;
63943;SDS011;50121;51.218;7.664;2024-03-25T13:32:07;6.53;;;5.13;;
63943;SDS011;50121;51.218;7.664;2024-03-25T13:34:39;8.18;;;5.00;;
63943;SDS011;50121;51.218;7.664;2024-03-25T13:37:07;20.70;;;11.57;;
63943;SDS011;50121;51.218;7.664;2024-03-25T13:39:34;7.80;;;5.68;;
63943;SDS011;50121;51.218;7.664;2024-03-25T13:42:01;8.68;;;5.40;;
63943;SDS011;50121;51.218;7.664;2024-03-25T13:44:28;9.57;;;6.82;;
63943;SDS011;50121;51.218;7.664;2024-03-25T13:46:56;6.30;;;5.68;;
63943;SDS011;50121;51.218;7.664;2024-03-25T13:49:23;7.10;;;6.25;;
63943;SDS011;50121;51.218;7.664;2024-03-25T13:51:51;7.00;;;5.53;;
63943;SDS011;50121;51.218;7.664;2024-03-25T13:54:23;6.13;;;5.10;;
63943;SDS011;50121;51.218;7.664;2024-03-25T13:56:50;9.23;;;5.03;;
63943;SDS011;50121;51.218;7.664;2024-03-25T13:59:20;5.80;;;5.20;;
63943;SDS011;50121;51.218;7.664;2024-03-25T14:01:47;7.57;;;5.13;;
63943;SDS011;50121;51.218;7.664;2024-03-25T14:04:14;7.38;;;5.53;;
63943;SDS011;50121;51.218;7.664;2024-03-25T14:06:42;8.85;;;6.00;;
63943;SDS011;50121;51.218;7.664;2024-03-25T14:09:24;7.07;;;6.00;;
63943;SDS011;50121;51.218;7.664;2024-03-25T14:11:51;7.50;;;6.15;;
63943;SDS011;50121;51.218;7.664;2024-03-25T14:14:18;6.57;;;5.93;;
63943;SDS011;50121;51.218;7.664;2024-03-25T14:16:45;6.40;;;5.80;;
63943;SDS011;50121;51.218;7.664;2024-03-25T14:19:12;8.23;;;6.40;;
63943;SDS011;50121;51.218;7.664;2024-03-25T14:21:39;7.95;;;6.50;;
63943;SDS011;50121;51.218;7.664;2024-03-25T14:24:10;7.43;;;6.72;;
63943;SDS011;50121;51.218;7.664;2024-03-25T14:26:36;8.20;;;7.40;;
63943;SDS011;50121;51.218;7.664;2024-03-25T14:29:06;7.82;;;7.18;;
63943;SDS011;50121;51.218;7.664;2024-03-25T14:31:33;8.13;;;7.32;;
63943;SDS011;50121;51.218;7.664;2024-03-25T14:34:02;8.00;;;7.28;;
63943;SDS011;50121;51.218;7.664;2024-03-25T14:36:30;8.25;;;7.45;;
63943;SDS011;50121;51.218;7.664;2024-03-25T14:39:00;9.00;;;8.30;;
63943;SDS011;50121;51.218;7.664;2024-03-25T14:41:29;8.82;;;8.15;;
63943;SDS011;50121;51.218;7.664;2024-03-25T14:44:04;8.75;;;8.05;;
63943;SDS011;50121;51.218;7.664;2024-03-25T14:46:31;9.30;;;8.50;;
63943;SDS011;50121;51.218;7.664;2024-03-25T14:49:00;9.65;;;8.82;;